»·PEaware :: ASA62 PASI-PAKT

ASA62 :: PASI-PAKT

FLIGHT INFORMATION

Flight Status: Arrived
Operator:
Alaska Airlines
More flights by this operator :: More flights under this callsign
Pilot: Cooper L. (8467)
Aircraft: BOEING 737-800
(B738)
More flights by this aircraft type
Origin: PASI Sitka Rocky Gutierrez
United States
Destination: PAKT Ketchikan Intl
United States
More flights between these airports :: More routes between these airports
Route: BKA3 BKA V311 ERANE DOOZI
File this flight plan on PilotEdge
Remarks:
Altitude:
(Current/Filed)
21,000ft
Speed:
(Current/Filed)
325kts
Departed: 21-May-17 01:19 PM
Arrived: 21-May-17 01:58 PM
Distance/Time
Traveled:
158nm/0:39
Distance/Time
To Go:
Arrived

Flight Plot

Page will automatically refresh every two minutes.

Flight plan parsing failed; only flown route is shown


Map Options




Map Legend


Flown Route
Filed Route
Departure Airport
Arrival Airport
Navaid (VOR, NDB)
Fix

Horizontal Profiles

Position Reports

Time Latitude Longitude Heading Altitude Ground
Speed
21-May-17 13:06 57.052360 -135.366061 75 17ft 0kts
21-May-17 13:07 57.052360 -135.366061 75 17ft 0kts
21-May-17 13:08 57.052360 -135.366061 75 17ft 0kts
21-May-17 13:09 57.052360 -135.366061 75 17ft 0kts
21-May-17 13:10 57.052360 -135.366061 75 17ft 0kts
21-May-17 13:11 57.052360 -135.366061 75 17ft 0kts
21-May-17 13:12 57.052360 -135.366061 75 17ft 0kts
21-May-17 13:13 57.052360 -135.366061 75 17ft 0kts
21-May-17 13:14 57.052215 -135.367071 67 11ft 1kts
21-May-17 13:15 57.052209 -135.367099 65 11ft 0kts
21-May-17 13:16 57.052209 -135.367099 65 11ft 0kts
21-May-17 13:17 57.052209 -135.367099 65 11ft 0kts
21-May-17 13:18 57.052607 -135.368301 295 9ft 11kts
21-May-17 13:19 57.053882 -135.371036 316 7ft 0kts
21-May-17 13:20 57.053939 -135.371138 316 7ft 0kts
21-May-17 13:21 57.050851 -135.368399 136 8ft 59kts
21-May-17 13:22 57.021593 -135.326985 173 1170ft 173kts
21-May-17 13:23 56.985435 -135.389179 237 3952ft 182kts
21-May-17 13:24 56.951594 -135.485434 215 5778ft 238kts
21-May-17 13:25 56.892466 -135.529471 200 8663ft 243kts
21-May-17 13:26 56.830939 -135.483412 135 11337ft 285kts
21-May-17 13:27 56.781935 -135.366187 135 13852ft 299kts
21-May-17 13:28 56.730459 -135.243822 135 16228ft 311kts
21-May-17 13:29 56.676940 -135.117279 135 18451ft 323kts
21-May-17 13:30 56.621401 -134.986612 135 20492ft 335kts
21-May-17 13:31 56.563767 -134.852003 135 21022ft 353kts
21-May-17 13:32 56.498880 -134.701338 134 21098ft 408kts
21-May-17 13:33 56.424667 -134.529854 134 21111ft 451kts
21-May-17 13:34 56.347702 -134.353121 134 21103ft 449kts
21-May-17 13:35 56.273260 -134.183614 134 21099ft 448kts
21-May-17 13:36 56.196225 -134.009474 135 21099ft 447kts
21-May-17 13:37 56.118916 -133.835984 135 21125ft 447kts
21-May-17 13:38 56.042536 -133.665943 135 21145ft 450kts
21-May-17 13:39 55.963840 -133.491610 134 19905ft 434kts
21-May-17 13:40 55.893617 -133.337250 135 18097ft 391kts
21-May-17 13:41 55.830391 -133.198992 136 16255ft 335kts
21-May-17 13:42 55.773237 -133.075061 137 14781ft 316kts
21-May-17 13:43 55.717669 -132.955113 137 13357ft 312kts
21-May-17 13:44 55.676337 -132.866223 137 12303ft 307kts
21-May-17 13:45 55.625880 -132.758158 137 11018ft 300kts
21-May-17 13:46 55.591600 -132.684997 137 10144ft 292kts
21-May-17 13:47 55.575645 -132.558258 82 8786ft 305kts
21-May-17 13:48 55.596407 -132.416410 82 7415ft 263kts
21-May-17 13:49 55.613332 -132.303534 83 6443ft 235kts
21-May-17 13:50 55.625635 -132.193604 115 5219ft 210kts
21-May-17 13:51 55.591274 -132.127521 141 4545ft 185kts
21-May-17 13:52 55.559329 -132.068373 139 4072ft 186kts
21-May-17 13:53 55.524917 -132.006437 144 4078ft 160kts
21-May-17 13:54 55.494133 -131.953003 145 4073ft 157kts
21-May-17 13:55 55.462990 -131.898984 145 3362ft 155kts
21-May-17 13:56 55.433456 -131.848350 137 2425ft 156kts
21-May-17 13:57 55.406477 -131.801366 135 1529ft 130kts
21-May-17 13:58 55.380982 -131.757279 135 682ft 127kts
21-May-17 13:59 55.357072 -131.716358 135 95ft 58kts
21-May-17 14:00 55.349884 -131.703989 136 96ft 15kts
21-May-17 14:01 55.351409 -131.703766 316 95ft 17kts
21-May-17 14:02 55.356201 -131.711600 314 96ft 14kts
21-May-17 14:03 55.357473 -131.711781 45 96ft 0kts
21-May-17 14:04 55.357473 -131.711781 45 96ft 0kts
21-May-17 14:05 55.357472 -131.711781 45 96ft 0kts
21-May-17 14:06 55.357473 -131.711781 45 96ft 0kts
21-May-17 14:07 55.357473 -131.711781 45 96ft 0kts
21-May-17 14:08 55.357472 -131.711781 45 96ft 0kts
21-May-17 14:09 55.357472 -131.711781 45 96ft 0kts
21-May-17 14:10 55.357473 -131.711781 45 96ft 0kts
21-May-17 14:11 55.357473 -131.711781 45 96ft 0kts
21-May-17 14:12 55.357472 -131.711781 45 96ft 0kts
21-May-17 14:13 55.357472 -131.711781 45 96ft 0kts

Navigation Log

Ident Type
Flight plan parsing failed, navigation log unavailable